createdAt,value
2019-03-30T00:00:07.528Z,12.90
2019-03-30T00:02:35.790Z,13.67
2019-03-30T00:05:03.611Z,13.30
2019-03-30T00:07:31.001Z,13.70
2019-03-30T00:09:58.414Z,12.73
2019-03-30T00:12:25.803Z,13.07
2019-03-30T00:14:53.218Z,13.27
2019-03-30T00:17:20.606Z,13.37
2019-03-30T00:19:48.014Z,12.33
2019-03-30T00:22:15.404Z,12.53
2019-03-30T00:24:42.823Z,13.07
2019-03-30T00:27:10.207Z,13.70
2019-03-30T00:29:37.627Z,12.73
2019-03-30T00:32:05.021Z,13.07
2019-03-30T00:34:32.434Z,14.57
2019-03-30T00:36:59.825Z,12.43
2019-03-30T00:39:27.238Z,14.90
2019-03-30T00:41:54.616Z,12.60
2019-03-30T00:44:22.025Z,14.37
2019-03-30T00:46:49.420Z,15.60
2019-03-30T00:49:16.824Z,13.50
2019-03-30T00:51:44.585Z,14.63
2019-03-30T00:54:12.003Z,14.20
2019-03-30T00:56:39.393Z,13.50
2019-03-30T00:59:06.806Z,14.17
2019-03-30T01:01:34.202Z,12.53
2019-03-30T01:04:01.619Z,14.83
2019-03-30T01:06:28.996Z,13.90
2019-03-30T01:08:56.409Z,12.90
2019-03-30T01:11:23.798Z,15.00
2019-03-30T01:13:51.221Z,14.50
2019-03-30T01:16:18.624Z,13.57
2019-03-30T01:18:46.034Z,14.23
2019-03-30T01:21:13.422Z,14.93
2019-03-30T01:23:40.842Z,14.60
2019-03-30T01:26:08.235Z,13.43
2019-03-30T01:28:35.645Z,14.17
2019-03-30T01:31:03.035Z,14.80
2019-03-30T01:33:30.440Z,13.33
2019-03-30T01:35:57.908Z,13.90
2019-03-30T01:38:25.313Z,14.07
2019-03-30T01:40:52.700Z,14.60
2019-03-30T01:43:20.087Z,14.40
2019-03-30T01:45:47.572Z,14.83
2019-03-30T01:48:14.958Z,14.07
2019-03-30T01:50:42.383Z,15.27
2019-03-30T01:53:09.845Z,14.80
2019-03-30T01:55:37.193Z,15.53
2019-03-30T01:58:04.576Z,14.70
2019-03-30T02:00:31.998Z,13.40
2019-03-30T02:02:59.389Z,15.23
2019-03-30T02:05:26.881Z,14.40
2019-03-30T02:07:54.275Z,14.50
2019-03-30T02:10:35.277Z,15.57
2019-03-30T02:13:02.660Z,13.70
2019-03-30T02:15:30.080Z,13.37
2019-03-30T02:17:57.474Z,15.53
2019-03-30T02:20:31.018Z,15.90
2019-03-30T02:22:56.190Z,14.53
2019-03-30T02:25:23.610Z,13.57
2019-03-30T02:27:50.999Z,13.63
2019-03-30T02:30:18.412Z,14.03
2019-03-30T02:32:45.813Z,13.50
2019-03-30T02:35:13.235Z,15.07
2019-03-30T02:37:40.630Z,15.10
2019-03-30T02:40:08.046Z,13.53
2019-03-30T02:42:35.434Z,14.57
2019-03-30T02:45:02.884Z,13.20
2019-03-30T02:47:30.278Z,15.03
2019-03-30T02:49:57.693Z,15.33
2019-03-30T02:52:25.089Z,13.63
2019-03-30T02:54:52.500Z,14.53
2019-03-30T02:57:19.895Z,14.57
2019-03-30T02:59:47.323Z,15.10
2019-03-30T03:02:14.698Z,14.60
2019-03-30T03:04:42.123Z,14.60
2019-03-30T03:07:09.594Z,14.20
2019-03-30T03:09:37.010Z,14.50
2019-03-30T03:12:04.412Z,14.40
2019-03-30T03:14:31.843Z,14.77
2019-03-30T03:16:59.229Z,14.20
2019-03-30T03:19:26.654Z,15.50
2019-03-30T03:21:54.040Z,14.90
2019-03-30T03:24:21.421Z,16.10
2019-03-30T03:26:48.841Z,16.00
2019-03-30T03:29:16.237Z,14.67
2019-03-30T03:31:43.654Z,14.63
2019-03-30T03:34:11.052Z,15.50
2019-03-30T03:36:38.466Z,14.77
2019-03-30T03:39:05.932Z,14.30
2019-03-30T03:41:33.342Z,15.40
2019-03-30T03:44:00.742Z,13.50
2019-03-30T03:46:28.159Z,14.73
2019-03-30T03:48:55.537Z,15.83
2019-03-30T03:51:26.020Z,14.90
2019-03-30T03:53:52.662Z,15.50
2019-03-30T03:56:21.741Z,14.87
2019-03-30T03:58:50.077Z,15.87
2019-03-30T04:01:19.070Z,15.03
2019-03-30T04:03:47.330Z,14.60
2019-03-30T04:06:16.523Z,15.40
2019-03-30T04:08:45.444Z,16.90
2019-03-30T04:11:14.331Z,15.00
2019-03-30T04:13:43.477Z,16.30
2019-03-30T04:16:10.890Z,14.60
2019-03-30T04:18:38.284Z,15.67
2019-03-30T04:21:05.706Z,14.23
2019-03-30T04:23:33.097Z,15.67
2019-03-30T04:26:00.535Z,15.50
2019-03-30T04:28:27.907Z,16.00
2019-03-30T04:30:55.320Z,16.17
2019-03-30T04:33:22.725Z,15.80
2019-03-30T04:35:50.144Z,15.77
2019-03-30T04:38:17.643Z,15.03
2019-03-30T04:40:45.066Z,15.57
2019-03-30T04:43:12.449Z,16.07
2019-03-30T04:45:39.874Z,16.30
2019-03-30T04:48:07.252Z,15.47
2019-03-30T04:50:34.673Z,15.63
2019-03-30T04:53:02.253Z,17.87
2019-03-30T04:55:29.669Z,16.67
2019-03-30T04:57:57.732Z,15.50
2019-03-30T05:00:25.452Z,15.30
2019-03-30T05:02:52.870Z,18.00
2019-03-30T05:05:20.259Z,15.73
2019-03-30T05:07:47.682Z,16.77
2019-03-30T05:10:15.067Z,18.30
2019-03-30T05:12:42.481Z,16.53
2019-03-30T05:15:09.928Z,15.77
2019-03-30T05:17:46.689Z,16.80
2019-03-30T05:20:06.759Z,16.13
2019-03-30T05:22:34.169Z,15.67
2019-03-30T05:25:01.553Z,15.47
2019-03-30T05:27:28.967Z,16.17
2019-03-30T05:29:56.357Z,14.77
2019-03-30T05:32:23.774Z,14.93
2019-03-30T05:34:51.168Z,15.10
2019-03-30T05:37:18.586Z,15.90
2019-03-30T05:39:45.971Z,15.43
2019-03-30T05:42:13.399Z,17.00
2019-03-30T05:44:40.789Z,14.30
2019-03-30T05:47:08.247Z,14.20
2019-03-30T05:49:35.665Z,16.40
2019-03-30T05:52:03.103Z,14.10
2019-03-30T05:54:30.485Z,14.70
2019-03-30T05:56:57.901Z,15.30
2019-03-30T05:59:25.280Z,15.80
2019-03-30T06:01:52.699Z,16.70
2019-03-30T06:04:20.081Z,16.20
2019-03-30T06:06:47.497Z,17.03
2019-03-30T06:09:14.887Z,15.50
2019-03-30T06:11:42.300Z,15.60
2019-03-30T06:14:09.700Z,15.40
2019-03-30T06:16:37.111Z,14.90
2019-03-30T06:19:04.576Z,15.13
2019-03-30T06:21:31.965Z,15.37
2019-03-30T06:23:59.377Z,17.57
2019-03-30T06:26:26.769Z,16.77
2019-03-30T06:28:54.185Z,16.30
2019-03-30T06:31:21.576Z,17.67
2019-03-30T06:33:48.998Z,17.27
2019-03-30T06:36:16.383Z,16.83
2019-03-30T06:38:43.803Z,16.73
2019-03-30T06:41:11.190Z,17.90
2019-03-30T06:43:38.614Z,16.40
2019-03-30T06:46:06.001Z,16.40
2019-03-30T06:48:35.963Z,17.93
2019-03-30T06:51:02.460Z,16.73
2019-03-30T06:53:29.875Z,17.23
2019-03-30T06:55:57.261Z,17.17
2019-03-30T06:58:24.680Z,17.33
2019-03-30T07:00:52.644Z,16.20
2019-03-30T07:03:20.051Z,16.80
2019-03-30T07:05:47.442Z,27.40
2019-03-30T07:08:16.036Z,31.03
2019-03-30T07:10:46.486Z,21.43
2019-03-30T07:13:14.073Z,17.70
2019-03-30T07:15:42.997Z,18.03
2019-03-30T07:18:10.886Z,16.77
2019-03-30T07:20:38.277Z,16.30
2019-03-30T07:23:11.802Z,16.17
2019-03-30T07:25:34.750Z,15.27
2019-03-30T07:28:02.165Z,18.23
2019-03-30T07:30:29.553Z,14.47
2019-03-30T07:32:56.971Z,15.87
2019-03-30T07:35:24.367Z,17.27
2019-03-30T07:37:51.787Z,16.97
2019-03-30T07:40:19.169Z,17.43
2019-03-30T07:42:46.599Z,17.40
2019-03-30T07:45:14.053Z,17.30
2019-03-30T07:47:41.445Z,17.00
2019-03-30T07:50:09.026Z,17.53
2019-03-30T07:52:36.414Z,17.43
2019-03-30T07:55:04.820Z,16.57
2019-03-30T07:57:32.217Z,17.47
2019-03-30T07:59:59.634Z,18.10
2019-03-30T08:02:27.029Z,19.33
2019-03-30T08:04:54.450Z,16.53
2019-03-30T08:07:21.830Z,17.67
2019-03-30T08:09:49.248Z,17.07
2019-03-30T08:12:16.635Z,17.37
2019-03-30T08:14:45.296Z,17.03
2019-03-30T08:17:12.747Z,18.40
2019-03-30T08:19:40.161Z,16.90
2019-03-30T08:22:07.549Z,18.07
2019-03-30T08:24:34.965Z,26.00
2019-03-30T08:27:02.356Z,20.70
2019-03-30T08:29:29.765Z,17.03
2019-03-30T08:31:57.160Z,17.30
2019-03-30T08:34:24.576Z,17.37
2019-03-30T08:36:51.965Z,15.50
2019-03-30T08:39:19.384Z,18.63
2019-03-30T08:41:46.774Z,17.27
2019-03-30T08:44:14.186Z,16.60
2019-03-30T08:46:41.578Z,19.43
2019-03-30T08:49:08.986Z,16.57
2019-03-30T08:51:36.382Z,17.13
2019-03-30T08:54:03.866Z,16.67
2019-03-30T08:56:31.251Z,15.63
2019-03-30T08:58:58.672Z,16.40
2019-03-30T09:01:26.065Z,18.93
2019-03-30T09:03:53.453Z,15.30
2019-03-30T09:06:20.883Z,17.47
2019-03-30T09:08:48.266Z,18.83
2019-03-30T09:11:15.687Z,16.27
2019-03-30T09:13:43.080Z,17.50
2019-03-30T09:16:10.500Z,16.67
2019-03-30T09:18:37.890Z,15.20
2019-03-30T09:21:05.306Z,18.17
2019-03-30T09:23:32.693Z,17.70
2019-03-30T09:26:00.112Z,24.80
2019-03-30T09:28:27.503Z,15.23
2019-03-30T09:30:54.929Z,16.50
2019-03-30T09:33:22.319Z,15.53
2019-03-30T09:35:49.725Z,17.30
2019-03-30T09:38:17.131Z,16.00
2019-03-30T09:40:44.551Z,17.70
2019-03-30T09:43:11.943Z,16.23
2019-03-30T09:45:39.363Z,17.83
2019-03-30T09:48:06.794Z,18.20
2019-03-30T09:50:34.306Z,16.20
2019-03-30T09:53:01.762Z,17.27
2019-03-30T09:55:29.179Z,18.20
2019-03-30T09:57:56.641Z,15.50
2019-03-30T10:00:24.077Z,16.30
2019-03-30T10:02:51.546Z,18.03
2019-03-30T10:05:18.965Z,19.60
2019-03-30T10:07:46.380Z,15.90
2019-03-30T10:10:13.923Z,17.30
2019-03-30T10:12:41.281Z,14.90
2019-03-30T10:15:08.694Z,15.10
2019-03-30T10:17:36.112Z,15.03
2019-03-30T10:20:05.460Z,15.35
2019-03-30T10:22:32.826Z,16.30
2019-03-30T10:25:00.335Z,16.53
2019-03-30T10:27:28.720Z,16.37
2019-03-30T10:29:56.112Z,18.37
2019-03-30T10:32:23.544Z,18.37
2019-03-30T10:34:50.946Z,16.47
2019-03-30T10:37:18.368Z,15.00
2019-03-30T10:39:45.762Z,17.53
2019-03-30T10:42:13.196Z,15.17
2019-03-30T10:44:40.593Z,18.30
2019-03-30T10:47:08.017Z,17.37
2019-03-30T10:49:35.412Z,16.87
2019-03-30T10:52:02.914Z,15.50
2019-03-30T10:54:30.313Z,16.90
2019-03-30T10:56:58.266Z,16.60
2019-03-30T10:59:25.664Z,17.10
2019-03-30T11:01:53.090Z,16.30
2019-03-30T11:04:20.489Z,17.10
2019-03-30T11:06:47.986Z,15.10
2019-03-30T11:09:15.449Z,16.47
2019-03-30T11:11:42.863Z,15.97
2019-03-30T11:14:10.246Z,16.00
2019-03-30T11:16:37.669Z,15.57
2019-03-30T11:19:05.057Z,13.93
2019-03-30T11:21:32.474Z,15.73
2019-03-30T11:23:59.932Z,15.07
2019-03-30T11:26:27.430Z,14.63
2019-03-30T11:28:54.838Z,14.10
2019-03-30T11:31:22.265Z,14.20
2019-03-30T11:33:49.665Z,14.93
2019-03-30T11:36:18.605Z,14.53
2019-03-30T11:38:46.398Z,14.50
2019-03-30T11:41:13.792Z,13.47
2019-03-30T11:43:41.272Z,13.57
2019-03-30T11:46:08.678Z,13.07
2019-03-30T11:48:37.676Z,14.30
2019-03-30T11:51:05.198Z,11.97
2019-03-30T11:53:32.651Z,13.63
2019-03-30T11:56:00.049Z,12.07
2019-03-30T11:58:27.540Z,14.17
2019-03-30T12:00:54.938Z,16.73
2019-03-30T12:03:22.448Z,15.70
2019-03-30T12:05:49.921Z,14.60
2019-03-30T12:08:17.371Z,15.40
2019-03-30T12:10:44.780Z,12.20
2019-03-30T12:13:12.223Z,14.00
2019-03-30T12:15:39.626Z,13.50
2019-03-30T12:18:07.213Z,12.80
2019-03-30T12:20:34.602Z,12.73
2019-03-30T12:23:02.085Z,12.60
2019-03-30T12:25:35.449Z,13.10
2019-03-30T12:27:58.545Z,11.60
2019-03-30T12:30:25.933Z,13.33
2019-03-30T12:32:53.353Z,11.63
2019-03-30T12:35:21.123Z,12.90
2019-03-30T12:37:48.545Z,13.73
2019-03-30T12:40:16.121Z,11.87
2019-03-30T12:42:43.551Z,11.57
2019-03-30T12:45:11.009Z,13.07
2019-03-30T12:47:39.790Z,9.53
2019-03-30T12:50:07.945Z,11.73
2019-03-30T12:52:35.443Z,9.90
2019-03-30T12:55:02.826Z,11.67
2019-03-30T12:57:30.247Z,8.90
2019-03-30T12:59:59.215Z,10.73
2019-03-30T13:02:26.755Z,8.90
2019-03-30T13:04:54.143Z,10.10
2019-03-30T13:07:21.540Z,10.47
2019-03-30T13:09:48.962Z,10.63
2019-03-30T13:12:16.347Z,9.20
2019-03-30T13:14:43.771Z,10.77
2019-03-30T13:17:11.163Z,9.77
2019-03-30T13:19:38.595Z,11.70
2019-03-30T13:22:05.988Z,10.40
2019-03-30T13:24:33.434Z,10.90
2019-03-30T13:27:00.819Z,12.00
2019-03-30T13:29:28.245Z,11.43
2019-03-30T13:31:55.640Z,11.90
2019-03-30T13:34:23.237Z,10.93
2019-03-30T13:36:50.650Z,12.53
2019-03-30T13:39:18.068Z,11.77
2019-03-30T13:41:45.462Z,10.30
2019-03-30T13:44:12.889Z,10.70
2019-03-30T13:46:40.282Z,10.00
2019-03-30T13:49:07.774Z,11.63
2019-03-30T13:51:35.166Z,11.73
2019-03-30T13:54:02.577Z,9.67
2019-03-30T13:56:29.973Z,10.90
2019-03-30T13:58:57.386Z,10.27
2019-03-30T14:01:24.775Z,9.00
2019-03-30T14:03:52.186Z,24.60
2019-03-30T14:06:19.579Z,11.13
2019-03-30T14:08:47.049Z,10.00
2019-03-30T14:11:14.444Z,9.57
2019-03-30T14:13:41.869Z,10.47
2019-03-30T14:16:09.433Z,9.07
2019-03-30T14:18:36.843Z,9.83
2019-03-30T14:21:04.236Z,9.83
2019-03-30T14:23:31.798Z,10.93
2019-03-30T14:25:59.229Z,11.27
2019-03-30T14:28:26.635Z,10.93
2019-03-30T14:30:54.030Z,9.70
2019-03-30T14:33:21.416Z,11.33
2019-03-30T14:35:48.847Z,11.23
2019-03-30T14:38:16.238Z,9.00
2019-03-30T14:40:43.683Z,7.70
2019-03-30T14:43:11.063Z,9.87
2019-03-30T14:45:38.482Z,8.87
2019-03-30T14:48:05.871Z,7.80
2019-03-30T14:50:33.288Z,8.10
2019-03-30T14:53:00.680Z,8.67
2019-03-30T14:55:28.120Z,9.17
2019-03-30T14:57:55.522Z,9.10
2019-03-30T15:00:23.085Z,8.00
2019-03-30T15:02:50.597Z,7.90
2019-03-30T15:05:18.019Z,8.10
2019-03-30T15:07:45.536Z,10.63
2019-03-30T15:10:13.117Z,9.53
2019-03-30T15:12:40.577Z,10.93
2019-03-30T15:15:11.589Z,10.27
2019-03-30T15:17:40.624Z,9.67
2019-03-30T15:20:10.378Z,9.43
2019-03-30T15:22:37.892Z,8.97
2019-03-30T15:25:09.067Z,9.33
2019-03-30T15:27:36.608Z,8.53
2019-03-30T15:30:06.134Z,9.13
2019-03-30T15:32:33.536Z,8.83
2019-03-30T15:35:00.969Z,8.77
2019-03-30T15:37:28.358Z,8.43
2019-03-30T15:39:55.760Z,8.90
2019-03-30T15:42:23.225Z,8.50
2019-03-30T15:44:50.638Z,7.93
2019-03-30T15:47:18.098Z,8.97
2019-03-30T15:49:45.567Z,8.23
2019-03-30T15:52:14.232Z,8.03
2019-03-30T15:54:41.873Z,7.57
2019-03-30T15:57:14.385Z,7.53
2019-03-30T15:59:38.386Z,7.70
2019-03-30T16:02:05.867Z,7.30
2019-03-30T16:04:33.323Z,6.90
2019-03-30T16:07:00.739Z,8.00
2019-03-30T16:09:28.177Z,7.93
2019-03-30T16:11:55.670Z,8.00
2019-03-30T16:14:23.046Z,7.60
2019-03-30T16:16:50.458Z,8.23
2019-03-30T16:19:17.846Z,8.67
2019-03-30T16:21:45.277Z,8.40
2019-03-30T16:24:12.652Z,7.50
2019-03-30T16:26:42.314Z,12.90
2019-03-30T16:29:09.102Z,8.83
2019-03-30T16:31:36.522Z,7.70
2019-03-30T16:34:03.985Z,9.00
2019-03-30T16:36:31.408Z,7.07
2019-03-30T16:38:58.799Z,7.27
2019-03-30T16:41:26.286Z,7.40
2019-03-30T16:43:53.604Z,7.27
2019-03-30T16:46:21.026Z,7.07
2019-03-30T16:48:48.417Z,5.77
2019-03-30T16:51:15.905Z,6.70
2019-03-30T16:53:43.306Z,7.43
2019-03-30T16:56:10.712Z,6.70
2019-03-30T16:58:38.103Z,7.37
2019-03-30T17:01:05.558Z,6.60
2019-03-30T17:03:32.979Z,7.63
2019-03-30T17:06:00.434Z,6.27
2019-03-30T17:08:27.841Z,6.87
2019-03-30T17:10:55.234Z,6.43
2019-03-30T17:13:22.655Z,7.50
2019-03-30T17:15:50.048Z,6.27
2019-03-30T17:18:17.461Z,6.23
2019-03-30T17:20:44.854Z,7.70
2019-03-30T17:23:12.261Z,7.00
2019-03-30T17:25:39.653Z,6.60
2019-03-30T17:28:07.255Z,6.90
2019-03-30T17:30:34.575Z,6.67
2019-03-30T17:33:01.995Z,7.10
2019-03-30T17:35:29.386Z,6.33
2019-03-30T17:37:56.821Z,7.60
2019-03-30T17:40:24.289Z,7.13
2019-03-30T17:42:51.693Z,6.97
2019-03-30T17:45:19.078Z,6.73
2019-03-30T17:47:46.502Z,6.50
2019-03-30T17:50:15.055Z,8.10
2019-03-30T17:52:42.472Z,7.57
2019-03-30T17:55:10.030Z,7.70
2019-03-30T17:57:37.443Z,7.53
2019-03-30T18:00:10.190Z,7.60
2019-03-30T18:02:37.599Z,8.33
2019-03-30T18:05:05.058Z,8.47
2019-03-30T18:07:32.451Z,7.30
2019-03-30T18:10:03.150Z,8.20
2019-03-30T18:12:28.904Z,9.60
2019-03-30T18:14:56.315Z,15.70
2019-03-30T18:17:23.701Z,13.15
2019-03-30T18:19:51.133Z,12.37
2019-03-30T18:22:18.592Z,10.13
2019-03-30T18:24:46.019Z,14.43
2019-03-30T18:27:13.402Z,10.30
2019-03-30T18:29:40.836Z,14.63
2019-03-30T18:32:08.449Z,17.42
2019-03-30T18:34:35.954Z,18.90
2019-03-30T18:37:03.430Z,10.83
2019-03-30T18:39:31.016Z,8.90
2019-03-30T18:41:58.413Z,12.70
2019-03-30T18:44:25.936Z,15.37
2019-03-30T18:46:53.303Z,16.27
2019-03-30T18:49:20.801Z,15.47
2019-03-30T18:51:49.264Z,14.30
2019-03-30T18:54:16.685Z,11.67
2019-03-30T18:56:44.079Z,13.70
2019-03-30T18:59:11.489Z,15.33
2019-03-30T19:01:38.909Z,20.53
2019-03-30T19:04:06.325Z,20.50
2019-03-30T19:06:33.709Z,17.23
2019-03-30T19:09:01.133Z,16.30
2019-03-30T19:11:28.525Z,16.80
2019-03-30T19:13:55.948Z,16.63
2019-03-30T19:16:23.334Z,13.03
2019-03-30T19:18:50.754Z,15.50
2019-03-30T19:21:18.153Z,17.93
2019-03-30T19:23:45.579Z,21.53
2019-03-30T19:26:13.000Z,21.00
2019-03-30T19:28:40.460Z,21.67
2019-03-30T19:31:07.847Z,24.60
2019-03-30T19:33:35.241Z,21.70
2019-03-30T19:36:02.686Z,18.53
2019-03-30T19:38:30.164Z,17.07
2019-03-30T19:40:57.587Z,19.77
2019-03-30T19:43:25.013Z,17.83
2019-03-30T19:45:52.394Z,15.83
2019-03-30T19:48:19.786Z,16.23
2019-03-30T19:50:47.208Z,15.93
2019-03-30T19:53:14.593Z,16.73
2019-03-30T19:55:42.014Z,19.33
2019-03-30T19:58:09.396Z,16.03
2019-03-30T20:00:38.662Z,17.17
2019-03-30T20:03:06.135Z,15.67
2019-03-30T20:05:33.484Z,15.40
2019-03-30T20:08:11.564Z,13.50
2019-03-30T20:10:29.945Z,13.57
2019-03-30T20:12:57.342Z,14.80
2019-03-30T20:15:24.782Z,13.13
2019-03-30T20:17:52.162Z,14.43
2019-03-30T20:20:19.586Z,13.97
2019-03-30T20:22:46.974Z,14.30
2019-03-30T20:25:14.412Z,16.37
2019-03-30T20:27:41.795Z,14.87
2019-03-30T20:30:09.686Z,15.63
2019-03-30T20:32:37.102Z,14.10
2019-03-30T20:35:05.678Z,13.07
2019-03-30T20:37:33.061Z,13.67
2019-03-30T20:40:00.528Z,14.37
2019-03-30T20:42:27.945Z,13.17
2019-03-30T20:44:55.358Z,15.27
2019-03-30T20:47:22.742Z,14.37
2019-03-30T20:49:50.160Z,14.93
2019-03-30T20:52:17.553Z,15.33
2019-03-30T20:54:44.977Z,15.07
2019-03-30T20:57:12.437Z,16.23
2019-03-30T20:59:40.592Z,15.17
2019-03-30T21:02:08.042Z,15.50
2019-03-30T21:04:35.459Z,14.80
2019-03-30T21:07:02.974Z,14.83
2019-03-30T21:09:30.389Z,14.10
2019-03-30T21:11:57.773Z,14.37
2019-03-30T21:14:25.181Z,13.73
2019-03-30T21:16:52.598Z,14.20
2019-03-30T21:19:20.050Z,13.60
2019-03-30T21:21:47.470Z,13.60
2019-03-30T21:24:14.857Z,13.50
2019-03-30T21:26:42.311Z,12.70
2019-03-30T21:29:09.720Z,13.43
2019-03-30T21:31:37.155Z,13.70
2019-03-30T21:34:04.580Z,13.60
2019-03-30T21:36:31.997Z,13.10
2019-03-30T21:38:59.385Z,14.93
2019-03-30T21:41:26.884Z,16.40
2019-03-30T21:43:54.278Z,16.67
2019-03-30T21:46:21.698Z,14.40
2019-03-30T21:48:49.099Z,15.07
2019-03-30T21:51:16.512Z,14.50
2019-03-30T21:53:43.912Z,14.30
2019-03-30T21:56:11.334Z,13.73
2019-03-30T21:58:38.724Z,15.60
2019-03-30T22:01:06.146Z,14.33
2019-03-30T22:03:33.556Z,14.97
2019-03-30T22:06:00.981Z,15.23
2019-03-30T22:08:28.536Z,12.97
2019-03-30T22:10:55.954Z,13.23
2019-03-30T22:13:23.418Z,13.50
2019-03-30T22:15:50.853Z,13.07
2019-03-30T22:18:18.262Z,16.03
2019-03-30T22:20:45.688Z,13.13
2019-03-30T22:23:13.083Z,14.40
2019-03-30T22:25:40.519Z,13.10
2019-03-30T22:28:07.914Z,13.70
2019-03-30T22:30:35.333Z,14.33
2019-03-30T22:33:02.719Z,14.07
2019-03-30T22:35:30.141Z,15.73
2019-03-30T22:37:57.548Z,15.23
2019-03-30T22:40:24.970Z,14.67
2019-03-30T22:42:52.373Z,13.10
2019-03-30T22:45:19.789Z,14.07
2019-03-30T22:47:47.175Z,14.37
2019-03-30T22:50:14.703Z,13.80
2019-03-30T22:52:42.136Z,15.60
2019-03-30T22:55:09.586Z,14.73
2019-03-30T22:57:37.021Z,13.77
2019-03-30T23:00:06.485Z,13.43
2019-03-30T23:02:34.075Z,14.07
2019-03-30T23:05:01.457Z,16.00
2019-03-30T23:07:28.951Z,15.23
2019-03-30T23:09:56.333Z,15.47
2019-03-30T23:12:23.757Z,16.23
2019-03-30T23:14:51.147Z,16.00
2019-03-30T23:17:18.557Z,15.40
2019-03-30T23:19:45.955Z,14.60
2019-03-30T23:22:13.365Z,16.37
2019-03-30T23:24:40.754Z,16.20
2019-03-30T23:27:08.167Z,15.67
2019-03-30T23:29:35.562Z,16.43
2019-03-30T23:32:02.989Z,15.20
2019-03-30T23:34:30.379Z,15.40
2019-03-30T23:36:57.789Z,15.33
2019-03-30T23:39:25.180Z,18.43
2019-03-30T23:41:52.604Z,16.57
2019-03-30T23:44:19.990Z,17.27
2019-03-30T23:46:47.413Z,15.50
2019-03-30T23:49:14.802Z,14.63
2019-03-30T23:51:42.230Z,15.77
2019-03-30T23:54:13.828Z,17.47
2019-03-30T23:56:41.317Z,17.30
2019-03-30T23:59:08.751Z,17.60
